Terminal Aerodrome Forecast
Issued by NWS

Home | Current Version | Previous Version | Text Only | Print | Product List | Glossary On
Versions: 1 2 3 4 5 6 7 8 9 10 11 12 13 14 15
000
FTUS46 KSGX 261700
TAFSNA
TAF
KSNA 261723Z 2618/2718 VRB05KT P6SM SCT080 BKN120
     FM270000 VRB05KT P6SM VCSH SCT030 OVC050
     FM270700 VRB04KT P6SM BKN050=

USA.gov is the U.S. government's official web portal to all federal, state and local government web resources and services.